createdAt,value
2017-05-26T00:00:29.387Z,0
2017-05-26T00:01:39.738Z,0
2017-05-26T00:02:50.090Z,0
2017-05-26T00:04:00.445Z,0
2017-05-26T00:05:10.472Z,0
2017-05-26T00:06:20.556Z,0
2017-05-26T00:07:30.905Z,0
2017-05-26T00:08:40.927Z,0
2017-05-26T00:09:51.278Z,0
2017-05-26T00:11:01.325Z,0
2017-05-26T00:12:11.691Z,0
2017-05-26T00:13:21.742Z,0
2017-05-26T00:14:31.779Z,0
2017-05-26T00:15:41.806Z,0
2017-05-26T00:16:51.851Z,0
2017-05-26T00:18:02.259Z,0
2017-05-26T00:19:12.300Z,0
2017-05-26T00:20:22.644Z,0
2017-05-26T00:21:33.064Z,0
2017-05-26T00:22:43.097Z,0
2017-05-26T00:23:52.820Z,0
2017-05-26T00:25:03.194Z,0
2017-05-26T00:26:13.541Z,0
2017-05-26T00:27:23.264Z,0
2017-05-26T00:28:33.612Z,0
2017-05-26T00:29:43.694Z,0
2017-05-26T00:30:53.730Z,0
2017-05-26T00:32:04.087Z,0
2017-05-26T00:33:14.444Z,0
2017-05-26T00:34:24.793Z,0
2017-05-26T00:35:34.975Z,0
2017-05-26T00:36:45.329Z,0
2017-05-26T00:37:55.366Z,0
2017-05-26T00:39:05.762Z,0
2017-05-26T00:40:16.110Z,0
2017-05-26T00:41:26.162Z,0
2017-05-26T00:42:36.189Z,0
2017-05-26T00:43:46.538Z,0
2017-05-26T00:44:56.886Z,0
2017-05-26T00:46:07.258Z,0
2017-05-26T00:47:17.295Z,0
2017-05-26T00:48:27.316Z,0
2017-05-26T00:49:37.359Z,0
2017-05-26T00:50:47.754Z,0
2017-05-26T00:51:58.118Z,0
2017-05-26T00:53:08.158Z,0
2017-05-26T00:54:17.874Z,0
2017-05-26T00:55:28.217Z,0
2017-05-26T00:56:38.312Z,0
2017-05-26T00:57:48.035Z,0
2017-05-26T00:58:58.007Z,0
2017-05-26T01:00:08.342Z,0
2017-05-26T01:01:18.380Z,0
2017-05-26T01:02:28.417Z,0
2017-05-26T01:03:38.764Z,0
2017-05-26T01:04:49.111Z,0
2017-05-26T01:05:59.458Z,0
2017-05-26T01:07:09.495Z,0
2017-05-26T01:08:19.528Z,0
2017-05-26T01:09:29.868Z,0
2017-05-26T01:10:39.646Z,0
2017-05-26T01:11:49.994Z,0
2017-05-26T01:13:00.333Z,0
2017-05-26T01:14:10.705Z,0
2017-05-26T01:15:20.756Z,0
2017-05-26T01:16:31.095Z,0
2017-05-26T01:17:41.432Z,0
2017-05-26T01:18:51.778Z,0
2017-05-26T01:20:02.138Z,0
2017-05-26T01:21:12.463Z,0
2017-05-26T01:22:22.803Z,0
2017-05-26T01:23:33.165Z,0
2017-05-26T01:24:43.201Z,0
2017-05-26T01:25:53.549Z,0
2017-05-26T01:27:03.896Z,0
2017-05-26T01:28:14.505Z,0
2017-05-26T01:29:24.848Z,0
2017-05-26T01:30:35.194Z,0
2017-05-26T01:31:45.551Z,0
2017-05-26T01:32:55.902Z,0
2017-05-26T01:34:06.252Z,0
2017-05-26T01:35:15.652Z,0
2017-05-26T01:36:26.047Z,0
2017-05-26T01:37:36.082Z,0
2017-05-26T01:38:46.115Z,0
2017-05-26T01:39:56.511Z,0
2017-05-26T01:41:06.548Z,0
2017-05-26T01:42:16.896Z,0
2017-05-26T01:43:26.939Z,0
2017-05-26T01:44:37.295Z,0
2017-05-26T01:45:47.072Z,0
2017-05-26T01:46:57.429Z,0
2017-05-26T01:48:07.791Z,0
2017-05-26T01:49:18.145Z,0
2017-05-26T01:50:28.190Z,0
2017-05-26T01:51:38.532Z,0
2017-05-26T01:52:48.562Z,0
2017-05-26T01:53:58.905Z,0
2017-05-26T01:55:08.946Z,0
2017-05-26T01:56:18.983Z,0
2017-05-26T01:57:29.330Z,0
2017-05-26T01:58:39.665Z,0
2017-05-26T01:59:50.030Z,0
2017-05-26T02:01:00.067Z,0
2017-05-26T02:02:10.406Z,0
2017-05-26T02:03:20.756Z,0
2017-05-26T02:04:30.796Z,0
2017-05-26T02:05:40.819Z,0
2017-05-26T02:06:51.209Z,0
2017-05-26T02:08:01.547Z,0
2017-05-26T02:09:11.638Z,0
2017-05-26T02:10:21.663Z,0
2017-05-26T02:11:32.010Z,0
2017-05-26T02:12:42.364Z,0
2017-05-26T02:13:52.717Z,0
2017-05-26T02:15:02.809Z,0
2017-05-26T02:16:13.155Z,0
2017-05-26T02:17:23.505Z,0
2017-05-26T02:18:33.848Z,0
2017-05-26T02:19:43.883Z,0
2017-05-26T02:20:53.930Z,0
2017-05-26T02:22:04.276Z,0
2017-05-26T02:23:14.624Z,0
2017-05-26T02:24:25.006Z,0
2017-05-26T02:25:35.351Z,0
2017-05-26T02:26:45.423Z,0
2017-05-26T02:27:55.781Z,0
2017-05-26T02:29:05.809Z,0
2017-05-26T02:30:16.150Z,0
2017-05-26T02:31:26.181Z,0
2017-05-26T02:32:36.580Z,0
2017-05-26T02:33:46.615Z,0
2017-05-26T02:34:56.957Z,0
2017-05-26T02:36:06.682Z,0
2017-05-26T02:37:17.035Z,0
2017-05-26T02:38:27.389Z,0
2017-05-26T02:39:37.779Z,0
2017-05-26T02:40:47.505Z,0
2017-05-26T02:41:57.853Z,0
2017-05-26T02:43:08.207Z,0
2017-05-26T02:44:18.542Z,0
2017-05-26T02:45:28.572Z,0
2017-05-26T02:46:38.917Z,0
2017-05-26T02:47:49.270Z,0
2017-05-26T02:48:59.311Z,0
2017-05-26T02:50:09.390Z,0
2017-05-26T02:51:19.739Z,0
2017-05-26T02:52:29.516Z,0
2017-05-26T02:53:39.541Z,0
2017-05-26T02:54:49.895Z,0
2017-05-26T02:56:00.238Z,0
2017-05-26T02:57:10.276Z,0
2017-05-26T02:58:20.620Z,0
2017-05-26T02:59:31.029Z,0
2017-05-26T03:00:41.368Z,0
2017-05-26T03:01:51.418Z,0
2017-05-26T03:33:07.353Z,25
2017-05-26T03:34:17.379Z,25
2017-05-26T03:35:27.708Z,30
2017-05-26T03:36:38.040Z,30
2017-05-26T03:37:48.377Z,35
2017-05-26T03:38:58.723Z,35
2017-05-26T03:40:08.761Z,35
2017-05-26T03:41:19.097Z,35
2017-05-26T03:42:29.443Z,40
2017-05-26T03:43:39.788Z,40
2017-05-26T03:44:50.142Z,40
2017-05-26T03:46:00.505Z,45
2017-05-26T03:47:10.846Z,45
2017-05-26T03:48:20.893Z,45
2017-05-26T03:49:31.247Z,45
2017-05-26T03:50:41.329Z,50
2017-05-26T03:51:51.050Z,50
2017-05-26T03:53:01.384Z,50
2017-05-26T03:54:11.101Z,55
2017-05-26T03:55:21.447Z,60
2017-05-26T03:56:31.528Z,60
2017-05-26T03:57:41.884Z,65
2017-05-26T03:58:52.232Z,65
2017-05-26T04:00:02.265Z,70
2017-05-26T04:01:12.618Z,70
2017-05-26T04:02:22.661Z,70
2017-05-26T04:03:33.021Z,70
2017-05-26T04:04:43.057Z,70
2017-05-26T04:05:53.405Z,70
2017-05-26T04:07:03.748Z,70
2017-05-26T04:08:13.932Z,75
2017-05-26T04:09:24.284Z,75
2017-05-26T04:10:34.633Z,80
2017-05-26T04:11:44.985Z,80
2017-05-26T04:12:55.330Z,80
2017-05-26T04:14:05.365Z,80
2017-05-26T04:15:15.711Z,90
2017-05-26T04:16:25.760Z,95
2017-05-26T04:17:35.791Z,105
2017-05-26T04:18:46.134Z,140
2017-05-26T04:19:56.527Z,125
2017-05-26T04:21:06.875Z,185
2017-05-26T04:22:17.216Z,200
2017-05-26T04:23:27.666Z,265
2017-05-26T04:24:38.007Z,220
2017-05-26T04:25:48.092Z,175
2017-05-26T04:26:58.436Z,150
2017-05-26T04:28:08.781Z,150
2017-05-26T04:29:18.814Z,155
2017-05-26T04:30:28.539Z,305
2017-05-26T04:31:38.618Z,140
2017-05-26T04:32:48.657Z,275
2017-05-26T04:33:59.008Z,245
2017-05-26T04:35:09.354Z,135
2017-05-26T04:36:19.700Z,170
2017-05-26T04:37:29.740Z,150
2017-05-26T04:38:40.100Z,160
2017-05-26T04:39:50.136Z,145
2017-05-26T04:41:00.493Z,140
2017-05-26T04:42:10.857Z,240
2017-05-26T04:43:21.216Z,405
2017-05-26T04:44:31.564Z,525
2017-05-26T04:45:41.904Z,535
2017-05-26T04:46:52.255Z,535
2017-05-26T04:48:02.298Z,540
2017-05-26T04:49:12.384Z,545
2017-05-26T04:50:22.715Z,535
2017-05-26T04:51:32.750Z,535
2017-05-26T04:52:43.096Z,575
2017-05-26T04:53:53.123Z,570
2017-05-26T04:55:03.528Z,555
2017-05-26T04:56:13.885Z,590
2017-05-26T04:57:24.235Z,575
2017-05-26T04:58:34.261Z,600
2017-05-26T04:59:44.607Z,590
2017-05-26T05:00:55.002Z,575
2017-05-26T05:02:05.370Z,565
2017-05-26T05:03:15.417Z,575
2017-05-26T05:04:25.784Z,570
2017-05-26T05:05:36.150Z,565
2017-05-26T05:06:46.552Z,570
2017-05-26T05:07:56.614Z,565
2017-05-26T05:09:06.356Z,550
2017-05-26T05:10:16.712Z,120
2017-05-26T05:11:26.447Z,490
2017-05-26T05:12:37.101Z,535
2017-05-26T05:13:47.350Z,535
2017-05-26T05:14:57.400Z,525
2017-05-26T05:16:07.748Z,540
2017-05-26T05:17:18.107Z,535
2017-05-26T05:18:28.473Z,530
2017-05-26T05:19:38.833Z,535
2017-05-26T05:20:49.183Z,525
2017-05-26T05:21:59.206Z,520
2017-05-26T05:23:09.247Z,535
2017-05-26T05:24:19.653Z,545
2017-05-26T05:25:29.691Z,520
2017-05-26T05:26:39.724Z,520
2017-05-26T05:27:50.064Z,520
2017-05-26T05:29:00.113Z,520
2017-05-26T05:30:10.567Z,495
2017-05-26T05:31:20.924Z,475
2017-05-26T05:32:31.272Z,450
2017-05-26T05:33:41.627Z,435
2017-05-26T05:34:52.002Z,415
2017-05-26T05:36:02.346Z,400
2017-05-26T05:37:12.708Z,390
2017-05-26T05:38:22.435Z,375
2017-05-26T05:39:32.800Z,370
2017-05-26T05:40:42.908Z,360
2017-05-26T05:41:53.320Z,365
2017-05-26T05:43:03.672Z,365
2017-05-26T05:44:13.078Z,370
2017-05-26T05:45:23.424Z,370
2017-05-26T05:46:33.788Z,370
2017-05-26T05:47:44.202Z,390
2017-05-26T05:48:54.250Z,400
2017-05-26T05:50:04.288Z,390
2017-05-26T05:51:14.314Z,380
2017-05-26T05:52:24.661Z,380
2017-05-26T05:53:34.700Z,380
2017-05-26T05:54:45.045Z,380
2017-05-26T05:55:55.088Z,380
2017-05-26T05:57:05.443Z,385
2017-05-26T05:58:15.480Z,385
2017-05-26T05:59:25.577Z,385
2017-05-26T06:00:35.314Z,380
2017-05-26T06:01:45.352Z,380
2017-05-26T06:02:55.704Z,375
2017-05-26T06:04:05.742Z,375
2017-05-26T06:05:16.112Z,370
2017-05-26T06:06:26.150Z,375
2017-05-26T06:07:36.503Z,375
2017-05-26T06:08:46.859Z,370
2017-05-26T06:09:57.204Z,365
2017-05-26T06:11:07.612Z,360
2017-05-26T06:12:17.953Z,300
2017-05-26T06:13:28.199Z,205
2017-05-26T06:14:38.237Z,155
2017-05-26T06:15:47.997Z,165
2017-05-26T06:16:58.342Z,165
2017-05-26T06:18:08.377Z,165
2017-05-26T06:19:18.736Z,175
2017-05-26T06:20:29.088Z,185
2017-05-26T06:21:39.449Z,225
2017-05-26T06:22:49.835Z,275
2017-05-26T06:24:00.190Z,300
2017-05-26T06:25:10.542Z,305
2017-05-26T06:26:21.123Z,305
2017-05-26T06:27:31.464Z,305
2017-05-26T06:28:41.876Z,300
2017-05-26T06:29:52.214Z,300
2017-05-26T06:31:02.267Z,300
2017-05-26T06:32:12.617Z,290
2017-05-26T06:33:22.659Z,285
2017-05-26T06:34:33.070Z,285
2017-05-26T06:35:43.412Z,280
2017-05-26T06:36:53.754Z,280
2017-05-26T06:38:04.125Z,270
2017-05-26T06:39:14.160Z,265
2017-05-26T06:40:24.563Z,265
2017-05-26T06:41:34.292Z,265
2017-05-26T06:42:44.331Z,255
2017-05-26T06:43:54.392Z,250
2017-05-26T06:45:04.427Z,250
2017-05-26T06:46:14.507Z,245
2017-05-26T06:47:24.852Z,240
2017-05-26T06:48:35.206Z,235
2017-05-26T06:49:45.258Z,230
2017-05-26T06:50:55.300Z,230
2017-05-26T06:52:05.646Z,225
2017-05-26T06:53:16.002Z,220
2017-05-26T06:54:26.342Z,215
2017-05-26T06:55:36.377Z,210
2017-05-26T06:56:46.414Z,210
2017-05-26T06:57:56.810Z,205
2017-05-26T06:59:06.839Z,205
2017-05-26T07:00:17.196Z,205
2017-05-26T07:01:27.540Z,205
2017-05-26T07:02:37.891Z,205
2017-05-26T07:03:48.301Z,185
2017-05-26T07:04:58.644Z,215
2017-05-26T07:06:08.992Z,215
2017-05-26T07:07:19.031Z,245
2017-05-26T07:08:29.069Z,240
2017-05-26T07:09:39.477Z,225
2017-05-26T07:10:49.839Z,210
2017-05-26T07:12:00.202Z,220
2017-05-26T07:13:10.236Z,210
2017-05-26T07:14:20.601Z,210
2017-05-26T07:15:31.011Z,215
2017-05-26T07:16:41.399Z,210
2017-05-26T07:17:51.764Z,215
2017-05-26T07:19:02.130Z,225
2017-05-26T07:20:12.477Z,225
2017-05-26T07:21:22.836Z,235
2017-05-26T07:22:33.219Z,240
2017-05-26T07:23:43.590Z,245
2017-05-26T07:24:53.952Z,255
2017-05-26T07:26:04.359Z,270
2017-05-26T07:27:14.769Z,280
2017-05-26T07:28:25.125Z,295
2017-05-26T07:29:35.478Z,305
2017-05-26T07:30:45.821Z,325
2017-05-26T07:31:56.172Z,335
2017-05-26T07:33:06.223Z,325
2017-05-26T07:34:16.261Z,340
2017-05-26T07:35:26.289Z,325
2017-05-26T07:36:36.641Z,325
2017-05-26T07:37:46.380Z,315
2017-05-26T07:38:56.438Z,350
2017-05-26T07:40:06.800Z,310
2017-05-26T07:41:17.177Z,315
2017-05-26T07:42:27.548Z,320
2017-05-26T07:43:37.920Z,300
2017-05-26T07:44:48.340Z,295
2017-05-26T07:45:58.713Z,255
2017-05-26T07:47:09.068Z,255
2017-05-26T07:48:19.438Z,240
2017-05-26T07:49:29.804Z,225
2017-05-26T07:50:39.899Z,235
2017-05-26T07:51:49.633Z,210
2017-05-26T07:52:59.694Z,200
2017-05-26T07:54:09.729Z,200
2017-05-26T07:55:20.083Z,235
2017-05-26T07:56:30.484Z,230
2017-05-26T07:57:40.835Z,235
2017-05-26T07:58:50.892Z,240
2017-05-26T08:00:01.258Z,245
2017-05-26T08:01:11.624Z,255
2017-05-26T08:02:21.754Z,275
2017-05-26T08:03:32.111Z,295
2017-05-26T08:04:42.147Z,310
2017-05-26T08:05:52.529Z,320
2017-05-26T08:07:02.925Z,275
2017-05-26T08:08:13.288Z,295
2017-05-26T08:09:23.353Z,290
2017-05-26T08:10:33.396Z,225
2017-05-26T08:11:43.752Z,265
2017-05-26T08:12:54.104Z,205
2017-05-26T08:14:04.530Z,190
2017-05-26T08:15:14.577Z,230
2017-05-26T08:16:24.952Z,185
2017-05-26T08:17:35.434Z,175
2017-05-26T08:18:45.804Z,190
2017-05-26T08:19:55.898Z,260
2017-05-26T08:21:06.265Z,255
2017-05-26T08:22:16.634Z,255
2017-05-26T08:23:26.699Z,260
2017-05-26T08:24:37.066Z,250
2017-05-26T08:25:47.144Z,255
2017-05-26T08:26:57.201Z,265
2017-05-26T08:28:06.931Z,280
2017-05-26T08:29:17.288Z,280
2017-05-26T08:30:27.329Z,290
2017-05-26T08:31:37.692Z,295
2017-05-26T08:32:47.420Z,295
2017-05-26T08:33:57.775Z,295
2017-05-26T08:35:08.133Z,305
2017-05-26T08:36:18.487Z,320
2017-05-26T08:37:28.853Z,265
2017-05-26T08:38:39.225Z,330
2017-05-26T08:39:49.585Z,315
2017-05-26T08:40:59.943Z,240
2017-05-26T08:42:10.311Z,295
2017-05-26T08:43:20.714Z,275
2017-05-26T08:44:31.067Z,230
2017-05-26T08:45:41.119Z,175
2017-05-26T08:46:51.179Z,175
2017-05-26T08:48:01.786Z,185
2017-05-26T08:49:12.189Z,155
2017-05-26T08:50:22.630Z,230
2017-05-26T08:51:32.978Z,195
2017-05-26T08:52:43.338Z,190
2017-05-26T08:53:53.382Z,225
2017-05-26T08:55:03.748Z,230
2017-05-26T08:56:14.114Z,235
2017-05-26T08:57:23.861Z,235
2017-05-26T08:58:34.273Z,245
2017-05-26T08:59:44.654Z,250
2017-05-26T09:00:55.093Z,255
2017-05-26T09:02:05.447Z,260
2017-05-26T09:03:15.825Z,260
2017-05-26T09:04:25.874Z,270
2017-05-26T09:05:35.913Z,265
2017-05-26T09:06:46.318Z,280
2017-05-26T09:07:56.366Z,295
2017-05-26T09:09:06.418Z,305
2017-05-26T09:10:16.784Z,320
2017-05-26T09:11:27.136Z,335
2017-05-26T09:12:37.559Z,310
2017-05-26T09:13:47.903Z,360
2017-05-26T09:14:58.273Z,355
2017-05-26T09:16:08.650Z,325
2017-05-26T09:17:18.397Z,260
2017-05-26T09:18:28.821Z,260
2017-05-26T09:19:39.172Z,270
2017-05-26T09:20:49.540Z,265
2017-05-26T09:21:59.599Z,260
2017-05-26T09:23:09.981Z,255
2017-05-26T09:24:20.034Z,325
2017-05-26T09:25:30.081Z,235
2017-05-26T09:26:40.436Z,225
2017-05-26T09:27:50.796Z,220
2017-05-26T09:29:01.409Z,220
2017-05-26T09:30:11.768Z,225
2017-05-26T09:31:21.822Z,310
2017-05-26T09:32:32.187Z,275
2017-05-26T09:33:42.231Z,300
2017-05-26T09:34:52.585Z,305
2017-05-26T09:36:02.643Z,320
2017-05-26T09:37:12.997Z,325
2017-05-26T09:38:23.396Z,335
2017-05-26T09:39:33.767Z,345
2017-05-26T09:40:44.123Z,345
2017-05-26T09:41:54.467Z,260
2017-05-26T09:43:04.511Z,250
2017-05-26T09:44:14.914Z,305
2017-05-26T09:45:25.281Z,255
2017-05-26T09:46:35.636Z,255
2017-05-26T09:47:46.054Z,355
2017-05-26T09:48:56.108Z,345
2017-05-26T09:50:06.155Z,330
2017-05-26T09:51:16.200Z,315
2017-05-26T09:52:26.243Z,305
2017-05-26T09:53:36.013Z,205
2017-05-26T09:54:46.370Z,295
2017-05-26T09:55:56.415Z,290
2017-05-26T09:57:06.769Z,300
2017-05-26T09:58:16.829Z,300
2017-05-26T09:59:30.254Z,310
2017-05-26T10:00:40.671Z,320
2017-05-26T10:01:51.035Z,335
2017-05-26T10:03:01.393Z,340
2017-05-26T10:04:11.140Z,350
2017-05-26T10:05:21.548Z,350
2017-05-26T10:06:31.927Z,350
2017-05-26T10:07:41.963Z,240
2017-05-26T10:08:52.326Z,230
2017-05-26T10:10:02.682Z,240
2017-05-26T10:11:13.089Z,290
2017-05-26T10:12:23.137Z,265
2017-05-26T10:13:33.197Z,295
2017-05-26T10:14:43.802Z,330
2017-05-26T10:15:53.840Z,350
2017-05-26T10:17:04.204Z,355
2017-05-26T10:18:14.558Z,370
2017-05-26T10:19:24.610Z,375
2017-05-26T10:20:34.651Z,360
2017-05-26T10:21:45.013Z,270
2017-05-26T10:22:55.503Z,240
2017-05-26T10:24:05.589Z,355
2017-05-26T10:25:15.941Z,270
2017-05-26T10:26:26.318Z,380
2017-05-26T10:27:36.110Z,370
2017-05-26T10:28:46.517Z,280
2017-05-26T10:29:56.887Z,380
2017-05-26T10:31:07.235Z,255
2017-05-26T10:32:16.978Z,260
2017-05-26T10:33:27.335Z,265
2017-05-26T10:34:37.752Z,245
2017-05-26T10:35:48.098Z,310
2017-05-26T10:36:58.490Z,335
2017-05-26T10:38:08.857Z,215
2017-05-26T10:39:19.227Z,235
2017-05-26T10:40:29.333Z,320
2017-05-26T10:41:39.692Z,330
2017-05-26T10:42:49.745Z,340
2017-05-26T10:44:00.111Z,355
2017-05-26T10:45:10.465Z,355
2017-05-26T10:46:20.865Z,350
2017-05-26T10:47:31.232Z,350
2017-05-26T10:48:41.268Z,365
2017-05-26T10:49:51.614Z,375
2017-05-26T10:51:01.746Z,265
2017-05-26T10:52:11.845Z,260
2017-05-26T10:53:22.207Z,255
2017-05-26T10:54:32.567Z,255
2017-05-26T10:55:43.005Z,375
2017-05-26T10:56:53.354Z,370
2017-05-26T10:58:03.728Z,240
2017-05-26T10:59:13.775Z,220
2017-05-26T11:00:24.181Z,210
2017-05-26T11:01:34.536Z,305
2017-05-26T11:02:44.572Z,215
2017-05-26T11:03:54.930Z,310
2017-05-26T11:05:05.299Z,315
2017-05-26T11:06:15.704Z,330
2017-05-26T11:07:26.061Z,350
2017-05-26T11:08:35.795Z,370
2017-05-26T11:09:46.158Z,390
2017-05-26T11:10:56.521Z,345
2017-05-26T11:12:06.894Z,285
2017-05-26T11:13:16.319Z,255
2017-05-26T11:14:26.695Z,250
2017-05-26T11:15:37.038Z,265
2017-05-26T11:16:47.406Z,220
2017-05-26T11:17:57.812Z,205
2017-05-26T11:19:07.558Z,190
2017-05-26T11:20:17.921Z,190
2017-05-26T11:21:28.273Z,195
2017-05-26T11:22:38.642Z,310
2017-05-26T11:23:49.055Z,325
2017-05-26T11:24:59.431Z,220
2017-05-26T11:26:09.787Z,330
2017-05-26T11:27:20.148Z,330
2017-05-26T11:28:30.520Z,360
2017-05-26T11:29:40.945Z,350
2017-05-26T11:30:51.288Z,230
2017-05-26T11:32:01.859Z,265
2017-05-26T11:33:12.229Z,195
2017-05-26T11:34:22.809Z,275
2017-05-26T11:35:33.166Z,300
2017-05-26T11:36:43.523Z,300
2017-05-26T11:37:53.890Z,295
2017-05-26T11:39:04.473Z,295
2017-05-26T11:40:14.214Z,300
2017-05-26T11:41:24.318Z,305
2017-05-26T11:42:34.043Z,325
2017-05-26T11:43:44.412Z,340
2017-05-26T11:44:54.782Z,365
2017-05-26T11:46:04.830Z,385
2017-05-26T11:47:15.210Z,285
2017-05-26T11:48:25.264Z,255
2017-05-26T11:49:35.367Z,245
2017-05-26T11:50:45.736Z,270
2017-05-26T11:51:55.778Z,240
2017-05-26T11:53:06.139Z,345
2017-05-26T11:54:16.507Z,335
2017-05-26T11:55:26.909Z,325
2017-05-26T11:56:37.265Z,325
2017-05-26T11:57:47.330Z,340
2017-05-26T11:58:57.693Z,340
2017-05-26T12:00:08.057Z,335
2017-05-26T12:01:18.489Z,330
2017-05-26T12:02:28.522Z,325
2017-05-26T12:03:38.579Z,315
2017-05-26T12:04:48.916Z,300
2017-05-26T12:05:59.267Z,300
2017-05-26T12:07:09.674Z,310
2017-05-26T12:08:19.735Z,315
2017-05-26T12:09:30.084Z,335
2017-05-26T12:10:40.453Z,350
2017-05-26T12:11:50.492Z,355
2017-05-26T12:13:00.539Z,240
2017-05-26T12:14:10.907Z,355
2017-05-26T12:15:20.647Z,360
2017-05-26T12:16:30.691Z,350
2017-05-26T12:17:40.434Z,300
2017-05-26T12:18:50.857Z,290
2017-05-26T12:20:01.214Z,305
2017-05-26T12:21:11.633Z,295
2017-05-26T12:22:21.684Z,295
2017-05-26T12:23:32.039Z,175
2017-05-26T12:24:42.136Z,185
2017-05-26T12:25:52.488Z,190
2017-05-26T12:27:02.736Z,300
2017-05-26T12:28:12.772Z,190
2017-05-26T12:29:23.118Z,315
2017-05-26T12:30:33.546Z,330
2017-05-26T12:31:43.590Z,345
2017-05-26T12:32:53.960Z,350
2017-05-26T12:34:04.308Z,350
2017-05-26T12:35:14.662Z,350
2017-05-26T12:36:25.012Z,340
2017-05-26T12:37:35.378Z,330
2017-05-26T12:38:45.732Z,315
2017-05-26T12:39:56.104Z,310
2017-05-26T12:41:06.461Z,195
2017-05-26T12:42:16.205Z,185
2017-05-26T12:43:25.948Z,235
2017-05-26T12:44:36.306Z,295
2017-05-26T12:45:46.353Z,290
2017-05-26T12:46:56.756Z,280
2017-05-26T12:48:06.890Z,280
2017-05-26T12:49:17.267Z,285
2017-05-26T12:50:27.012Z,285
2017-05-26T12:51:37.372Z,215
2017-05-26T12:52:47.415Z,300
2017-05-26T12:53:57.821Z,295
2017-05-26T12:55:08.168Z,295
2017-05-26T12:56:18.547Z,295
2017-05-26T12:57:28.600Z,175
2017-05-26T12:58:38.954Z,185
2017-05-26T12:59:49.349Z,160
2017-05-26T13:00:59.725Z,175
2017-05-26T13:02:10.085Z,280
2017-05-26T13:03:20.477Z,280
2017-05-26T13:04:30.851Z,285
2017-05-26T13:05:41.188Z,225
2017-05-26T13:06:51.532Z,290
2017-05-26T13:08:01.893Z,280
2017-05-26T13:09:11.939Z,285
2017-05-26T13:10:21.979Z,285
2017-05-26T13:11:32.022Z,290
2017-05-26T13:12:42.384Z,295
2017-05-26T13:13:52.751Z,300
2017-05-26T13:15:03.133Z,310
2017-05-26T13:16:13.507Z,325
2017-05-26T13:17:23.613Z,335
2017-05-26T13:18:33.682Z,335
2017-05-26T13:19:44.049Z,330
2017-05-26T13:20:54.421Z,325
2017-05-26T13:22:04.481Z,225
2017-05-26T13:23:14.570Z,250
2017-05-26T13:24:24.627Z,305
2017-05-26T13:25:34.978Z,295
2017-05-26T13:26:45.330Z,290
2017-05-26T13:27:55.676Z,285
2017-05-26T13:29:06.042Z,275
2017-05-26T13:30:16.091Z,270
2017-05-26T13:31:26.454Z,265
2017-05-26T13:32:36.189Z,260
2017-05-26T13:33:46.235Z,265
2017-05-26T13:34:56.600Z,260
2017-05-26T13:36:06.676Z,270
2017-05-26T13:37:16.742Z,275
2017-05-26T13:38:27.108Z,280
2017-05-26T13:39:37.473Z,285
2017-05-26T13:40:47.832Z,290
2017-05-26T13:41:57.878Z,295
2017-05-26T13:43:08.238Z,300
2017-05-26T13:44:18.582Z,305
2017-05-26T13:45:28.776Z,325
2017-05-26T13:46:38.799Z,325
2017-05-26T13:47:49.160Z,325
2017-05-26T13:48:59.196Z,330
2017-05-26T13:50:09.259Z,325
2017-05-26T13:51:19.621Z,325
2017-05-26T13:52:29.985Z,320
2017-05-26T13:53:40.335Z,290
2017-05-26T13:54:50.398Z,315
2017-05-26T13:56:00.738Z,305
2017-05-26T13:57:10.789Z,300
2017-05-26T13:58:21.142Z,285
2017-05-26T13:59:31.508Z,280
2017-05-26T14:00:41.889Z,180
2017-05-26T14:01:52.260Z,175
2017-05-26T14:03:02.623Z,250
2017-05-26T14:04:13.030Z,170
2017-05-26T14:05:23.406Z,170
2017-05-26T14:06:33.462Z,170
2017-05-26T14:07:43.841Z,170
2017-05-26T14:08:53.574Z,165
2017-05-26T14:10:03.999Z,185
2017-05-26T14:11:14.363Z,185
2017-05-26T14:12:24.722Z,190
2017-05-26T14:13:34.762Z,280
2017-05-26T14:14:44.814Z,220
2017-05-26T14:15:54.553Z,190
2017-05-26T14:17:04.608Z,270
2017-05-26T14:18:14.981Z,185
2017-05-26T14:19:25.017Z,270
2017-05-26T14:20:35.052Z,285
2017-05-26T14:21:45.093Z,285
2017-05-26T14:22:55.477Z,280
2017-05-26T14:24:05.521Z,250
2017-05-26T14:25:15.885Z,180
2017-05-26T14:26:25.615Z,250
2017-05-26T14:27:35.348Z,245
2017-05-26T14:28:45.781Z,155
2017-05-26T14:29:56.143Z,150
2017-05-26T14:31:06.511Z,235
2017-05-26T14:32:16.873Z,220
2017-05-26T14:33:27.263Z,160
2017-05-26T14:34:37.646Z,180
2017-05-26T14:35:48.002Z,170
2017-05-26T14:36:57.436Z,235
2017-05-26T14:38:07.158Z,265
2017-05-26T14:39:17.195Z,270
2017-05-26T14:40:27.292Z,280
2017-05-26T14:41:37.357Z,205
2017-05-26T14:42:47.723Z,265
2017-05-26T14:43:58.082Z,270
2017-05-26T14:45:08.122Z,235
2017-05-26T14:46:18.494Z,220
2017-05-26T14:47:28.858Z,185
2017-05-26T14:48:38.912Z,185
2017-05-26T14:49:49.261Z,235
2017-05-26T14:50:59.643Z,190
2017-05-26T14:52:10.001Z,190
2017-05-26T14:53:20.285Z,195
2017-05-26T14:54:30.647Z,210
2017-05-26T14:55:41.051Z,250
2017-05-26T14:56:50.781Z,250
2017-05-26T14:58:00.522Z,245
2017-05-26T14:59:10.864Z,240
2017-05-26T15:00:20.826Z,240
2017-05-26T15:01:31.187Z,240
2017-05-26T15:02:41.550Z,240
2017-05-26T15:03:51.911Z,240
2017-05-26T15:05:02.283Z,240
2017-05-26T15:06:12.350Z,235
2017-05-26T15:07:22.731Z,190
2017-05-26T15:08:32.774Z,210
2017-05-26T15:09:42.766Z,165
2017-05-26T15:10:53.143Z,200
2017-05-26T15:12:03.202Z,160
2017-05-26T15:13:13.556Z,150
2017-05-26T15:14:23.589Z,150
2017-05-26T15:15:33.638Z,210
2017-05-26T15:16:43.690Z,145
2017-05-26T15:17:53.736Z,155
2017-05-26T15:19:04.174Z,160
2017-05-26T15:20:14.250Z,215
2017-05-26T15:21:24.293Z,160
2017-05-26T15:22:34.672Z,165
2017-05-26T15:23:45.051Z,225
2017-05-26T15:24:55.423Z,225
2017-05-26T15:26:05.476Z,175
2017-05-26T15:27:15.838Z,220
2017-05-26T15:28:26.249Z,225
2017-05-26T15:29:36.633Z,220
2017-05-26T15:30:47.000Z,220
2017-05-26T15:31:57.046Z,220
2017-05-26T15:33:07.080Z,220
2017-05-26T15:34:17.434Z,225
2017-05-26T15:35:27.773Z,225
2017-05-26T15:36:38.136Z,220
2017-05-26T15:37:48.508Z,220
2017-05-26T15:38:58.561Z,175
2017-05-26T15:40:08.926Z,170
2017-05-26T15:41:19.272Z,210
2017-05-26T15:42:29.310Z,210
2017-05-26T15:43:39.706Z,205
2017-05-26T15:44:50.056Z,200
2017-05-26T15:46:00.456Z,200
2017-05-26T15:47:10.818Z,195
2017-05-26T15:48:21.252Z,195
2017-05-26T15:49:31.295Z,200
2017-05-26T15:50:41.036Z,200
2017-05-26T15:51:51.074Z,190
2017-05-26T15:53:01.133Z,180
2017-05-26T15:54:11.189Z,170
2017-05-26T15:55:21.569Z,170
2017-05-26T15:56:31.937Z,170
2017-05-26T15:57:42.299Z,175
2017-05-26T15:58:52.682Z,180
2017-05-26T16:00:03.038Z,180
2017-05-26T16:01:13.403Z,165
2017-05-26T16:02:23.785Z,145
2017-05-26T16:03:34.162Z,175
2017-05-26T16:04:44.547Z,175
2017-05-26T16:05:54.271Z,175
2017-05-26T16:07:04.345Z,180
2017-05-26T16:08:14.719Z,175
2017-05-26T16:09:25.097Z,165
2017-05-26T16:10:35.156Z,155
2017-05-26T16:11:45.218Z,155
2017-05-26T16:12:55.269Z,130
2017-05-26T16:14:05.363Z,130
2017-05-26T16:15:15.794Z,155
2017-05-26T16:16:26.158Z,155
2017-05-26T16:17:36.528Z,125
2017-05-26T16:18:46.903Z,125
2017-05-26T16:19:57.282Z,120
2017-05-26T16:21:07.681Z,125
2017-05-26T16:22:18.046Z,130
2017-05-26T16:23:28.415Z,135
2017-05-26T16:24:38.783Z,140
2017-05-26T16:25:49.198Z,155
2017-05-26T16:26:59.296Z,165
2017-05-26T16:28:09.675Z,160
2017-05-26T16:29:20.020Z,165
2017-05-26T16:30:30.394Z,165
2017-05-26T16:31:40.753Z,170
2017-05-26T16:32:50.868Z,165
2017-05-26T16:34:01.228Z,140
2017-05-26T16:35:11.270Z,145
2017-05-26T16:36:21.624Z,145
2017-05-26T16:37:31.984Z,145
2017-05-26T16:38:42.345Z,155
2017-05-26T16:39:54.812Z,130
2017-05-26T16:41:05.289Z,120
2017-05-26T16:42:15.665Z,120
2017-05-26T16:43:25.698Z,115
2017-05-26T16:44:36.070Z,110
2017-05-26T16:45:46.131Z,115
2017-05-26T16:46:56.482Z,120
2017-05-26T16:48:06.840Z,130
2017-05-26T16:49:17.200Z,135
2017-05-26T16:50:27.302Z,135
2017-05-26T16:51:37.685Z,135